createdAt,value
2016-12-22T00:00:54.374Z,0
2016-12-22T00:01:54.041Z,0
2016-12-22T00:02:54.366Z,0
2016-12-22T00:03:54.039Z,0
2016-12-22T00:04:54.031Z,0
2016-12-22T00:05:53.699Z,0
2016-12-22T00:06:54.679Z,0
2016-12-22T00:07:54.667Z,0
2016-12-22T00:08:54.338Z,0
2016-12-22T00:09:54.035Z,0
2016-12-22T00:10:54.335Z,0
2016-12-22T00:11:53.679Z,0
2016-12-22T00:12:53.991Z,0
2016-12-22T00:13:54.307Z,0
2016-12-22T00:14:54.331Z,0
2016-12-22T00:15:54.303Z,0
2016-12-22T00:16:54.307Z,0
2016-12-22T00:17:54.299Z,0
2016-12-22T00:18:53.643Z,0
2016-12-22T00:19:54.297Z,0
2016-12-22T00:20:54.291Z,0
2016-12-22T00:21:54.287Z,0
2016-12-22T00:22:54.611Z,0
2016-12-22T00:23:54.275Z,0
2016-12-22T00:24:54.279Z,0
2016-12-22T00:25:53.615Z,0
2016-12-22T00:26:53.931Z,0
2016-12-22T00:27:53.607Z,0
2016-12-22T00:28:54.259Z,0
2016-12-22T00:29:54.247Z,0
2016-12-22T00:30:54.268Z,0
2016-12-22T00:31:54.240Z,0
2016-12-22T00:32:54.240Z,0
2016-12-22T00:33:54.558Z,0
2016-12-22T00:34:53.900Z,0
2016-12-22T00:35:54.220Z,0
2016-12-22T00:36:53.560Z,0
2016-12-22T00:37:53.564Z,0
2016-12-22T00:38:53.884Z,0
2016-12-22T00:39:54.204Z,0
2016-12-22T00:40:54.208Z,0
2016-12-22T00:41:54.192Z,0
2016-12-22T00:42:54.520Z,0
2016-12-22T00:43:53.864Z,0
2016-12-22T00:44:53.848Z,0
2016-12-22T00:45:54.324Z,0
2016-12-22T00:46:54.508Z,0
2016-12-22T00:47:54.500Z,0
2016-12-22T00:48:54.168Z,0
2016-12-22T00:49:54.157Z,0
2016-12-22T00:50:53.505Z,0
2016-12-22T00:51:53.821Z,0
2016-12-22T00:52:54.152Z,0
2016-12-22T00:53:54.168Z,0
2016-12-22T00:54:54.148Z,0
2016-12-22T00:55:54.465Z,0
2016-12-22T00:56:54.141Z,0
2016-12-22T00:57:53.793Z,0
2016-12-22T00:58:54.144Z,0
2016-12-22T00:59:54.113Z,0
2016-12-22T01:00:54.109Z,0
2016-12-22T01:01:53.793Z,0
2016-12-22T01:02:53.453Z,0
2016-12-22T01:03:53.773Z,0
2016-12-22T01:04:53.777Z,0
2016-12-22T01:05:53.773Z,0
2016-12-22T01:06:54.094Z,0
2016-12-22T01:07:54.089Z,0
2016-12-22T01:08:53.761Z,0
2016-12-22T01:09:54.089Z,0
2016-12-22T01:10:54.073Z,0
2016-12-22T01:11:54.062Z,0
2016-12-22T01:12:53.732Z,0
2016-12-22T01:13:54.053Z,0
2016-12-22T01:14:54.053Z,0
2016-12-22T01:15:54.382Z,0
2016-12-22T01:16:54.058Z,0
2016-12-22T01:17:53.710Z,0
2016-12-22T01:18:53.711Z,0
2016-12-22T01:19:53.714Z,0
2016-12-22T01:20:54.354Z,0
2016-12-22T01:21:53.698Z,0
2016-12-22T01:22:53.686Z,0
2016-12-22T01:23:54.014Z,0
2016-12-22T01:24:54.326Z,0
2016-12-22T01:25:53.026Z,0
2016-12-22T01:26:53.666Z,0
2016-12-22T01:27:53.670Z,0
2016-12-22T01:28:53.670Z,0
2016-12-22T01:29:54.318Z,0
2016-12-22T01:30:53.662Z,0
2016-12-22T01:31:53.330Z,0
2016-12-22T01:32:54.302Z,0
2016-12-22T01:33:53.642Z,0
2016-12-22T01:34:54.298Z,0
2016-12-22T01:35:53.963Z,0
2016-12-22T01:36:53.959Z,0
2016-12-22T01:37:53.962Z,0
2016-12-22T01:38:53.954Z,0
2016-12-22T01:39:53.939Z,0
2016-12-22T01:40:53.951Z,0
2016-12-22T01:41:53.947Z,0
2016-12-22T01:42:53.607Z,0
2016-12-22T01:43:53.919Z,0
2016-12-22T01:44:53.939Z,0
2016-12-22T01:45:54.255Z,0
2016-12-22T01:46:54.247Z,0
2016-12-22T01:47:53.588Z,0
2016-12-22T01:48:53.575Z,0
2016-12-22T01:49:53.591Z,0
2016-12-22T01:50:53.571Z,0
2016-12-22T01:51:53.899Z,0
2016-12-22T01:52:53.567Z,0
2016-12-22T01:53:53.883Z,0
2016-12-22T01:54:53.883Z,0
2016-12-22T01:55:54.203Z,0
2016-12-22T01:56:53.871Z,0
2016-12-22T01:57:54.204Z,0
2016-12-22T01:58:54.199Z,0
2016-12-22T01:59:53.871Z,0
2016-12-22T02:00:53.544Z,0
2016-12-22T02:01:53.199Z,0
2016-12-22T02:02:53.531Z,0
2016-12-22T02:03:53.868Z,0
2016-12-22T02:04:53.843Z,0
2016-12-22T02:05:53.844Z,0
2016-12-22T02:06:53.500Z,0
2016-12-22T02:07:54.160Z,0
2016-12-22T02:08:53.492Z,0
2016-12-22T02:09:53.484Z,0
2016-12-22T02:10:53.807Z,0
2016-12-22T02:11:53.804Z,0
2016-12-22T02:12:53.464Z,0
2016-12-22T02:13:54.156Z,0
2016-12-22T02:14:53.784Z,0
2016-12-22T02:15:53.799Z,0
2016-12-22T02:16:53.792Z,0
2016-12-22T02:17:53.452Z,0
2016-12-22T02:18:53.772Z,0
2016-12-22T02:19:53.772Z,0
2016-12-22T02:20:53.476Z,0
2016-12-22T02:21:53.440Z,0
2016-12-22T02:22:53.748Z,0
2016-12-22T02:23:54.088Z,0
2016-12-22T02:24:53.432Z,0
2016-12-22T02:25:53.744Z,0
2016-12-22T02:26:53.736Z,0
2016-12-22T02:27:54.056Z,0
2016-12-22T02:28:53.084Z,0
2016-12-22T02:29:53.404Z,0
2016-12-22T02:30:53.716Z,0
2016-12-22T02:31:53.708Z,0
2016-12-22T02:32:54.048Z,0
2016-12-22T02:33:53.720Z,0
2016-12-22T02:34:54.028Z,0
2016-12-22T02:35:53.712Z,0
2016-12-22T02:36:53.700Z,0
2016-12-22T02:37:53.361Z,0
2016-12-22T02:38:53.080Z,0
2016-12-22T02:39:53.361Z,0
2016-12-22T02:40:53.384Z,0
2016-12-22T02:41:54.001Z,0
2016-12-22T02:42:54.001Z,0
2016-12-22T02:43:53.672Z,0
2016-12-22T02:44:54.001Z,0
2016-12-22T02:45:53.664Z,0
2016-12-22T02:46:53.992Z,0
2016-12-22T02:47:53.321Z,0
2016-12-22T02:48:53.652Z,0
2016-12-22T02:49:53.653Z,0
2016-12-22T02:50:52.985Z,0
2016-12-22T02:51:53.952Z,0
2016-12-22T02:52:53.647Z,0
2016-12-22T02:53:53.632Z,0
2016-12-22T02:54:53.624Z,0
2016-12-22T02:55:53.620Z,0
2016-12-22T02:56:53.937Z,0
2016-12-22T02:57:53.604Z,0
2016-12-22T02:58:53.276Z,0
2016-12-22T02:59:53.276Z,0
2016-12-22T03:00:53.588Z,0
2016-12-22T03:01:53.736Z,0
2016-12-22T03:02:52.932Z,0
2016-12-22T03:03:53.251Z,0
2016-12-22T03:04:53.244Z,0
2016-12-22T03:05:53.576Z,0
2016-12-22T03:06:53.244Z,0
2016-12-22T03:07:53.572Z,0
2016-12-22T03:08:53.559Z,0
2016-12-22T03:09:53.236Z,0
2016-12-22T03:10:53.228Z,0
2016-12-22T03:11:54.120Z,0
2016-12-22T03:12:53.884Z,0
2016-12-22T03:13:53.540Z,0
2016-12-22T03:14:53.868Z,0
2016-12-22T03:15:53.528Z,0
2016-12-22T03:16:53.528Z,0
2016-12-22T03:17:53.197Z,0
2016-12-22T03:18:53.520Z,0
2016-12-22T03:19:52.864Z,0
2016-12-22T03:20:52.853Z,0
2016-12-22T03:21:53.192Z,0
2016-12-22T03:22:53.497Z,0
2016-12-22T03:23:53.497Z,0
2016-12-22T03:24:53.816Z,0
2016-12-22T03:25:53.484Z,0
2016-12-22T03:26:53.480Z,0
2016-12-22T03:27:53.473Z,0
2016-12-22T03:28:53.472Z,0
2016-12-22T03:29:53.469Z,0
2016-12-22T03:30:52.812Z,0
2016-12-22T03:31:53.480Z,0
2016-12-22T03:32:53.484Z,0
2016-12-22T03:33:53.768Z,0
2016-12-22T03:34:53.121Z,0
2016-12-22T03:35:53.116Z,0
2016-12-22T03:36:53.104Z,0
2016-12-22T03:37:52.789Z,0
2016-12-22T03:38:53.752Z,0
2016-12-22T03:39:53.088Z,0
2016-12-22T03:40:53.756Z,0
2016-12-22T03:41:53.344Z,0
2016-12-22T03:42:53.412Z,0
2016-12-22T03:43:53.736Z,0
2016-12-22T03:44:53.401Z,0
2016-12-22T03:45:53.068Z,0
2016-12-22T03:46:53.388Z,0
2016-12-22T03:47:53.708Z,0
2016-12-22T03:48:53.384Z,0
2016-12-22T03:49:53.388Z,0
2016-12-22T03:50:53.699Z,0
2016-12-22T03:51:53.705Z,0
2016-12-22T03:52:53.037Z,0
2016-12-22T03:53:53.032Z,0
2016-12-22T03:54:53.364Z,0
2016-12-22T03:55:53.356Z,0
2016-12-22T03:56:53.672Z,0
2016-12-22T03:57:53.030Z,0
2016-12-22T03:58:52.684Z,0
2016-12-22T03:59:53.336Z,0
2016-12-22T04:00:53.338Z,0
2016-12-22T04:01:53.000Z,0
2016-12-22T04:02:52.996Z,0
2016-12-22T04:03:53.320Z,0
2016-12-22T04:04:53.312Z,0
2016-12-22T04:05:52.988Z,0
2016-12-22T04:06:53.312Z,0
2016-12-22T04:07:53.300Z,0
2016-12-22T04:08:53.304Z,0
2016-12-22T04:09:52.968Z,0
2016-12-22T04:10:53.288Z,0
2016-12-22T04:11:53.532Z,0
2016-12-22T04:12:53.288Z,0
2016-12-22T04:13:53.292Z,0
2016-12-22T04:14:53.268Z,0
2016-12-22T04:15:52.936Z,0
2016-12-22T04:16:52.928Z,0
2016-12-22T04:17:52.930Z,0
2016-12-22T04:18:52.925Z,0
2016-12-22T04:19:52.929Z,0
2016-12-22T04:20:52.913Z,0
2016-12-22T04:21:53.577Z,0
2016-12-22T04:22:53.237Z,0
2016-12-22T04:23:53.229Z,0
2016-12-22T04:24:52.575Z,0
2016-12-22T04:25:52.885Z,0
2016-12-22T04:26:52.897Z,0
2016-12-22T04:27:52.553Z,0
2016-12-22T04:28:53.213Z,0
2016-12-22T04:29:53.541Z,0
2016-12-22T04:30:52.225Z,0
2016-12-22T04:31:53.529Z,0
2016-12-22T04:32:53.517Z,0
2016-12-22T04:33:53.721Z,0
2016-12-22T04:34:52.861Z,0
2016-12-22T04:35:53.185Z,0
2016-12-22T04:36:53.494Z,0
2016-12-22T04:37:52.849Z,0
2016-12-22T04:38:53.158Z,0
2016-12-22T04:39:53.165Z,0
2016-12-22T04:40:52.837Z,0
2016-12-22T04:41:53.089Z,0
2016-12-22T04:42:53.142Z,0
2016-12-22T04:43:52.486Z,0
2016-12-22T04:44:53.145Z,0
2016-12-22T04:45:52.809Z,0
2016-12-22T04:46:52.814Z,0
2016-12-22T04:47:53.450Z,0
2016-12-22T04:48:52.826Z,0
2016-12-22T04:49:52.790Z,0
2016-12-22T04:50:53.110Z,0
2016-12-22T04:51:52.786Z,0
2016-12-22T04:52:52.786Z,0
2016-12-22T04:53:52.778Z,0
2016-12-22T04:54:53.102Z,0
2016-12-22T04:55:53.094Z,0
2016-12-22T04:56:52.763Z,0
2016-12-22T04:57:52.758Z,0
2016-12-22T04:58:53.079Z,0
2016-12-22T04:59:52.427Z,0
2016-12-22T05:00:53.426Z,0
2016-12-22T05:01:53.067Z,0
2016-12-22T05:02:53.391Z,0
2016-12-22T05:03:53.059Z,0
2016-12-22T05:04:53.059Z,0
2016-12-22T05:05:53.043Z,0
2016-12-22T05:06:52.719Z,0
2016-12-22T05:07:53.043Z,0
2016-12-22T05:08:52.699Z,0
2016-12-22T05:09:53.032Z,0
2016-12-22T05:10:53.023Z,0
2016-12-22T05:11:53.592Z,0
2016-12-22T05:12:53.351Z,0
2016-12-22T05:13:53.004Z,0
2016-12-22T05:14:53.007Z,0
2016-12-22T05:15:53.044Z,0
2016-12-22T05:16:52.680Z,0
2016-12-22T05:17:52.996Z,0
2016-12-22T05:18:53.320Z,0
2016-12-22T05:19:52.992Z,0
2016-12-22T05:20:53.316Z,0
2016-12-22T05:21:53.320Z,0
2016-12-22T05:22:52.968Z,0
2016-12-22T05:23:52.979Z,0
2016-12-22T05:24:52.308Z,0
2016-12-22T05:25:52.628Z,0
2016-12-22T05:26:52.964Z,0
2016-12-22T05:27:53.112Z,0
2016-12-22T05:28:52.628Z,0
2016-12-22T05:29:52.952Z,0
2016-12-22T05:30:53.277Z,0
2016-12-22T05:31:52.608Z,0
2016-12-22T05:32:52.933Z,0
2016-12-22T05:33:52.932Z,0
2016-12-22T05:34:52.272Z,0
2016-12-22T05:35:52.924Z,0
2016-12-22T05:36:52.921Z,0
2016-12-22T05:37:52.905Z,0
2016-12-22T05:38:52.585Z,0
2016-12-22T05:39:52.257Z,0
2016-12-22T05:40:52.893Z,0
2016-12-22T05:41:52.893Z,0
2016-12-22T05:42:53.461Z,0
2016-12-22T05:43:53.209Z,0
2016-12-22T05:44:52.880Z,0
2016-12-22T05:45:52.873Z,0
2016-12-22T05:46:52.873Z,0
2016-12-22T05:47:53.189Z,0
2016-12-22T05:48:52.862Z,0
2016-12-22T05:49:52.533Z,0
2016-12-22T05:50:52.537Z,0
2016-12-22T05:51:53.177Z,0
2016-12-22T05:52:52.513Z,0
2016-12-22T05:53:52.510Z,0
2016-12-22T05:54:52.513Z,0
2016-12-22T05:55:52.866Z,0
2016-12-22T05:56:52.833Z,0
2016-12-22T05:57:52.493Z,0
2016-12-22T05:58:53.149Z,0
2016-12-22T05:59:52.502Z,0
2016-12-22T06:00:52.814Z,0
2016-12-22T06:01:52.486Z,0
2016-12-22T06:02:53.129Z,0
2016-12-22T06:03:53.126Z,0
2016-12-22T06:04:52.794Z,0
2016-12-22T06:05:52.470Z,0
2016-12-22T06:06:53.114Z,0
2016-12-22T06:07:52.458Z,0
2016-12-22T06:08:52.439Z,0
2016-12-22T06:09:53.094Z,0
2016-12-22T06:10:52.446Z,0
2016-12-22T06:11:52.766Z,0
2016-12-22T06:12:53.015Z,0
2016-12-22T06:13:52.763Z,0
2016-12-22T06:14:52.471Z,0
2016-12-22T06:15:53.071Z,0
2016-12-22T06:16:52.083Z,0
2016-12-22T06:17:52.743Z,0
2016-12-22T06:18:52.735Z,0
2016-12-22T06:19:52.731Z,0
2016-12-22T06:20:52.391Z,0
2016-12-22T06:21:52.391Z,0
2016-12-22T06:22:52.715Z,0
2016-12-22T06:23:52.379Z,0
2016-12-22T06:24:52.060Z,0
2016-12-22T06:25:52.379Z,0
2016-12-22T06:26:53.032Z,0
2016-12-22T06:27:52.375Z,0
2016-12-22T06:28:53.031Z,0
2016-12-22T06:29:53.023Z,0
2016-12-22T06:30:52.687Z,0
2016-12-22T06:31:52.344Z,0
2016-12-22T06:32:52.671Z,0
2016-12-22T06:33:52.332Z,0
2016-12-22T06:34:52.016Z,0
2016-12-22T06:35:52.651Z,0
2016-12-22T06:36:52.980Z,0
2016-12-22T06:37:52.316Z,0
2016-12-22T06:38:52.980Z,0
2016-12-22T06:39:52.324Z,0
2016-12-22T06:40:52.636Z,0
2016-12-22T06:41:52.633Z,0
2016-12-22T06:42:52.548Z,0
2016-12-22T06:43:52.621Z,0
2016-12-22T06:44:52.292Z,0
2016-12-22T06:45:52.624Z,0
2016-12-22T06:46:52.948Z,0
2016-12-22T06:47:52.612Z,0
2016-12-22T06:48:52.624Z,0
2016-12-22T06:49:52.597Z,0
2016-12-22T06:50:51.617Z,0
2016-12-22T06:51:52.589Z,0
2016-12-22T06:52:52.917Z,0
2016-12-22T06:53:52.253Z,0
2016-12-22T06:54:52.909Z,0
2016-12-22T06:55:52.243Z,0
2016-12-22T06:56:52.573Z,0
2016-12-22T06:57:52.234Z,0
2016-12-22T06:58:52.261Z,0
2016-12-22T06:59:52.549Z,0
2016-12-22T07:00:52.549Z,0
2016-12-22T07:01:52.866Z,0
2016-12-22T07:02:52.537Z,0
2016-12-22T07:03:52.861Z,0
2016-12-22T07:04:52.201Z,0
2016-12-22T07:05:51.865Z,0
2016-12-22T07:06:52.850Z,0
2016-12-22T07:07:52.514Z,0
2016-12-22T07:08:52.850Z,0
2016-12-22T07:09:52.518Z,0
2016-12-22T07:10:52.178Z,0
2016-12-22T07:11:52.506Z,0
2016-12-22T07:12:52.426Z,0
2016-12-22T07:13:52.485Z,0
2016-12-22T07:14:52.482Z,0
2016-12-22T07:15:52.486Z,0
2016-12-22T07:16:52.486Z,0
2016-12-22T07:17:52.158Z,0
2016-12-22T07:18:52.474Z,0
2016-12-22T07:19:52.142Z,0
2016-12-22T07:20:51.811Z,0
2016-12-22T07:21:52.447Z,0
2016-12-22T07:22:52.447Z,0
2016-12-22T07:23:52.131Z,0
2016-12-22T07:24:52.119Z,0
2016-12-22T07:25:52.119Z,0
2016-12-22T07:26:52.775Z,0
2016-12-22T07:27:52.255Z,0
2016-12-22T07:28:52.435Z,0
2016-12-22T07:29:52.763Z,0
2016-12-22T07:30:52.415Z,0
2016-12-22T07:31:52.735Z,0
2016-12-22T07:32:52.087Z,0
2016-12-22T07:33:52.406Z,0
2016-12-22T07:34:52.083Z,0
2016-12-22T07:35:52.099Z,0
2016-12-22T07:36:52.755Z,0
2016-12-22T07:37:52.375Z,0
2016-12-22T07:38:52.055Z,0
2016-12-22T07:39:52.376Z,0
2016-12-22T07:40:52.363Z,5
2016-12-22T07:41:52.367Z,5
2016-12-22T07:42:52.287Z,5
2016-12-22T07:43:52.363Z,5
2016-12-22T07:44:52.351Z,5
2016-12-22T07:45:52.679Z,5
2016-12-22T07:46:52.351Z,5
2016-12-22T07:47:52.343Z,5
2016-12-22T07:48:52.671Z,5
2016-12-22T07:49:52.335Z,5
2016-12-22T07:50:52.659Z,5
2016-12-22T07:51:52.339Z,5
2016-12-22T07:52:52.319Z,5
2016-12-22T07:53:52.003Z,5
2016-12-22T07:54:52.331Z,5
2016-12-22T07:55:51.666Z,5
2016-12-22T07:56:51.975Z,5
2016-12-22T07:57:51.974Z,5
2016-12-22T07:58:52.291Z,5
2016-12-22T07:59:51.963Z,5
2016-12-22T08:00:51.962Z,5
2016-12-22T08:01:52.270Z,5
2016-12-22T08:02:52.610Z,5
2016-12-22T08:03:51.950Z,5
2016-12-22T08:04:52.596Z,5
2016-12-22T08:05:52.594Z,5
2016-12-22T08:06:51.934Z,5
2016-12-22T08:07:52.070Z,5
2016-12-22T08:08:52.577Z,5
2016-12-22T08:09:52.246Z,5
2016-12-22T08:10:52.238Z,5
2016-12-22T08:11:52.234Z,10
2016-12-22T08:12:52.234Z,10
2016-12-22T08:13:52.230Z,10
2016-12-22T08:14:52.554Z,10
2016-12-22T08:15:51.897Z,10
2016-12-22T08:16:52.546Z,10
2016-12-22T08:17:52.202Z,10
2016-12-22T08:18:51.877Z,10
2016-12-22T08:19:52.534Z,10
2016-12-22T08:20:51.866Z,10
2016-12-22T08:21:51.541Z,10
2016-12-22T08:22:52.188Z,10
2016-12-22T08:23:52.508Z,10
2016-12-22T08:24:52.185Z,10
2016-12-22T08:25:52.165Z,10
2016-12-22T08:26:52.496Z,10
2016-12-22T08:27:52.176Z,15
2016-12-22T08:28:52.484Z,15
2016-12-22T08:29:52.155Z,15
2016-12-22T08:30:52.480Z,15
2016-12-22T08:31:52.508Z,15
2016-12-22T08:32:51.819Z,15
2016-12-22T08:33:52.463Z,15
2016-12-22T08:34:52.459Z,15
2016-12-22T08:35:52.463Z,15
2016-12-22T08:36:52.132Z,15
2016-12-22T08:37:52.119Z,15
2016-12-22T08:38:52.443Z,15
2016-12-22T08:39:52.103Z,15
2016-12-22T08:40:51.451Z,15
2016-12-22T08:41:51.779Z,15
2016-12-22T08:42:52.431Z,15
2016-12-22T08:43:52.094Z,15
2016-12-22T08:44:52.090Z,15
2016-12-22T08:45:51.758Z,15
2016-12-22T08:46:52.086Z,15
2016-12-22T08:47:51.750Z,15
2016-12-22T08:48:51.410Z,15
2016-12-22T08:49:52.062Z,15
2016-12-22T08:50:51.738Z,15
2016-12-22T08:51:52.386Z,15
2016-12-22T08:52:52.414Z,20
2016-12-22T08:53:51.398Z,20
2016-12-22T08:54:52.370Z,20
2016-12-22T08:55:51.714Z,20
2016-12-22T08:56:51.378Z,20
2016-12-22T08:57:52.362Z,20
2016-12-22T08:58:51.706Z,20
2016-12-22T08:59:52.019Z,20
2016-12-22T09:00:52.011Z,20
2016-12-22T09:01:52.338Z,20
2016-12-22T09:02:52.010Z,20
2016-12-22T09:03:51.683Z,25
2016-12-22T09:04:51.998Z,25
2016-12-22T09:05:51.991Z,25
2016-12-22T09:06:51.995Z,25
2016-12-22T09:07:51.667Z,25
2016-12-22T09:08:51.987Z,25
2016-12-22T09:09:51.979Z,25
2016-12-22T09:10:51.651Z,25
2016-12-22T09:11:52.309Z,25
2016-12-22T09:12:51.644Z,25
2016-12-22T09:13:51.635Z,25
2016-12-22T09:14:51.300Z,25
2016-12-22T09:15:51.979Z,25
2016-12-22T09:16:51.640Z,25
2016-12-22T09:21:51.701Z,30
2016-12-22T09:22:22.592Z,30
2016-12-22T09:23:01.505Z,30
2016-12-22T09:24:02.140Z,30
2016-12-22T09:25:01.480Z,30
2016-12-22T09:26:02.137Z,30
2016-12-22T09:27:02.136Z,30
2016-12-22T09:28:01.153Z,30
2016-12-22T09:29:02.129Z,30
2016-12-22T09:30:01.889Z,30
2016-12-22T09:31:02.121Z,30
2016-12-22T09:32:01.497Z,30
2016-12-22T09:33:01.457Z,25
2016-12-22T09:34:01.441Z,25
2016-12-22T09:35:02.137Z,25
2016-12-22T09:36:01.781Z,25
2016-12-22T09:37:02.095Z,25
2016-12-22T09:38:01.761Z,25
2016-12-22T09:39:01.758Z,25
2016-12-22T09:40:01.754Z,25
2016-12-22T09:41:02.078Z,25
2016-12-22T09:42:01.747Z,25
2016-12-22T09:43:01.750Z,25
2016-12-22T09:44:01.730Z,25
2016-12-22T09:45:01.726Z,25
2016-12-22T09:46:02.062Z,25
2016-12-22T09:47:01.398Z,30
2016-12-22T09:48:02.047Z,30
2016-12-22T09:49:01.063Z,30
2016-12-22T09:50:01.859Z,30
2016-12-22T09:51:01.707Z,30
2016-12-22T09:52:01.707Z,30
2016-12-22T09:53:01.704Z,30
2016-12-22T09:54:01.367Z,30
2016-12-22T09:55:02.027Z,30
2016-12-22T09:56:01.367Z,30
2016-12-22T09:57:01.356Z,35
2016-12-22T09:58:01.676Z,35
2016-12-22T09:59:01.716Z,30
2016-12-22T10:00:01.672Z,30
2016-12-22T10:01:01.340Z,30
2016-12-22T10:02:01.344Z,30
2016-12-22T10:03:01.992Z,30
2016-12-22T10:04:01.993Z,30
2016-12-22T10:05:01.660Z,30
2016-12-22T10:06:01.649Z,30
2016-12-22T10:07:01.660Z,30
2016-12-22T10:08:01.692Z,35
2016-12-22T10:09:01.313Z,35
2016-12-22T10:10:01.313Z,35
2016-12-22T10:11:01.633Z,35
2016-12-22T10:12:01.621Z,35
2016-12-22T10:13:01.637Z,35
2016-12-22T10:14:00.965Z,35
2016-12-22T10:15:01.945Z,35
2016-12-22T10:16:01.617Z,35
2016-12-22T10:17:01.941Z,35
2016-12-22T10:18:01.605Z,35
2016-12-22T10:19:01.594Z,35
2016-12-22T10:20:01.934Z,35
2016-12-22T10:21:01.258Z,35
2016-12-22T10:22:01.582Z,40
2016-12-22T10:23:01.910Z,40
2016-12-22T10:24:01.258Z,40
2016-12-22T10:25:01.910Z,40
2016-12-22T10:26:01.255Z,35
2016-12-22T10:27:01.258Z,40
2016-12-22T10:28:01.566Z,35
2016-12-22T10:29:01.894Z,35
2016-12-22T10:30:01.559Z,40
2016-12-22T10:31:01.887Z,40
2016-12-22T10:32:01.883Z,35
2016-12-22T10:33:01.251Z,35
2016-12-22T10:34:01.215Z,35
2016-12-22T10:35:01.540Z,40
2016-12-22T10:36:01.532Z,40
2016-12-22T10:37:01.535Z,35
2016-12-22T10:38:01.196Z,35
2016-12-22T10:39:01.196Z,35
2016-12-22T10:40:01.200Z,40
2016-12-22T10:41:01.188Z,35
2016-12-22T10:42:01.508Z,40
2016-12-22T10:43:01.512Z,40
2016-12-22T10:44:01.504Z,35
2016-12-22T10:45:01.508Z,40
2016-12-22T10:46:01.169Z,40
2016-12-22T10:47:01.820Z,40
2016-12-22T10:48:01.164Z,45
2016-12-22T10:49:01.485Z,45
2016-12-22T10:50:01.157Z,40
2016-12-22T10:51:01.493Z,40
2016-12-22T10:52:01.793Z,40
2016-12-22T10:53:01.145Z,45
2016-12-22T10:54:01.137Z,40
2016-12-22T10:55:01.793Z,40
2016-12-22T10:56:01.501Z,40
2016-12-22T10:57:01.453Z,40
2016-12-22T10:58:01.457Z,45
2016-12-22T10:59:01.770Z,40
2016-12-22T11:00:01.117Z,40
2016-12-22T11:01:01.434Z,40
2016-12-22T11:02:01.438Z,40
2016-12-22T11:03:01.766Z,40
2016-12-22T11:04:01.430Z,45
2016-12-22T11:05:01.742Z,45
2016-12-22T11:06:00.770Z,45
2016-12-22T11:07:01.422Z,40
2016-12-22T11:08:01.418Z,40
2016-12-22T11:09:01.090Z,40
2016-12-22T11:10:01.403Z,40
2016-12-22T11:11:01.086Z,40
2016-12-22T11:12:01.403Z,45
2016-12-22T11:13:01.748Z,45
2016-12-22T11:14:01.727Z,45
2016-12-22T11:15:00.733Z,45
2016-12-22T11:16:01.051Z,45
2016-12-22T11:17:01.387Z,45
2016-12-22T11:18:00.719Z,45
2016-12-22T11:19:01.375Z,50
2016-12-22T11:20:01.371Z,55
2016-12-22T11:21:01.371Z,55
2016-12-22T11:22:01.691Z,55
2016-12-22T11:23:01.359Z,55
2016-12-22T11:24:01.023Z,50
2016-12-22T11:25:01.023Z,50
2016-12-22T11:26:01.680Z,45
2016-12-22T11:27:00.695Z,45
2016-12-22T11:28:01.016Z,45
2016-12-22T11:29:01.664Z,50
2016-12-22T11:30:00.684Z,50
2016-12-22T11:31:01.000Z,55
2016-12-22T11:32:01.344Z,50
2016-12-22T11:33:01.320Z,50
2016-12-22T11:34:00.992Z,50
2016-12-22T11:35:01.008Z,45
2016-12-22T11:36:01.650Z,50
2016-12-22T11:37:01.308Z,50
2016-12-22T11:38:01.312Z,50
2016-12-22T11:39:01.636Z,50
2016-12-22T11:40:01.293Z,50
2016-12-22T11:41:00.957Z,55
2016-12-22T11:42:01.288Z,55
2016-12-22T11:43:01.285Z,55
2016-12-22T11:44:01.625Z,60
2016-12-22T11:45:01.609Z,55
2016-12-22T11:46:01.613Z,55
2016-12-22T11:47:00.949Z,60
2016-12-22T11:48:01.593Z,60
2016-12-22T11:49:00.945Z,60
2016-12-22T11:50:01.269Z,60
2016-12-22T11:51:01.589Z,60
2016-12-22T11:52:01.265Z,55
2016-12-22T11:53:00.925Z,50
2016-12-22T11:54:01.249Z,50
2016-12-22T11:55:01.581Z,50
2016-12-22T11:56:01.245Z,50
2016-12-22T11:57:01.237Z,50
2016-12-22T11:58:01.233Z,50
2016-12-22T11:59:01.238Z,50
2016-12-22T12:00:01.221Z,50
2016-12-22T12:01:00.565Z,50
2016-12-22T12:02:01.550Z,50
2016-12-22T12:03:00.922Z,50
2016-12-22T12:04:00.886Z,55
2016-12-22T12:05:01.538Z,55
2016-12-22T12:06:01.530Z,55
2016-12-22T12:07:01.538Z,55
2016-12-22T12:08:01.202Z,55
2016-12-22T12:09:00.885Z,55
2016-12-22T12:10:01.202Z,55
2016-12-22T12:11:01.526Z,55
2016-12-22T12:12:01.198Z,55
2016-12-22T12:13:01.522Z,55
2016-12-22T12:14:01.506Z,50
2016-12-22T12:15:01.514Z,50
2016-12-22T12:16:01.182Z,50
2016-12-22T12:17:01.170Z,45
2016-12-22T12:18:01.163Z,50
2016-12-22T12:19:01.167Z,50
2016-12-22T12:20:01.180Z,50
2016-12-22T12:21:01.151Z,50
2016-12-22T12:22:01.151Z,50
2016-12-22T12:23:00.827Z,50
2016-12-22T12:24:01.146Z,50
2016-12-22T12:25:00.859Z,45
2016-12-22T12:26:00.808Z,45
2016-12-22T12:27:01.131Z,45
2016-12-22T12:28:01.483Z,50
2016-12-22T12:29:01.469Z,50
2016-12-22T12:30:01.131Z,50
2016-12-22T12:31:01.123Z,50
2016-12-22T12:32:01.123Z,50
2016-12-22T12:33:00.783Z,50
2016-12-22T12:34:01.115Z,50
2016-12-22T12:35:01.443Z,45
2016-12-22T12:36:01.443Z,45
2016-12-22T12:37:01.091Z,45
2016-12-22T12:38:01.107Z,45
2016-12-22T12:39:00.768Z,45
2016-12-22T12:40:00.779Z,45
2016-12-22T12:41:01.411Z,40
2016-12-22T12:42:01.083Z,45
2016-12-22T12:43:01.411Z,45
2016-12-22T12:44:01.427Z,45
2016-12-22T12:45:01.075Z,50
2016-12-22T12:46:01.079Z,50
2016-12-22T12:47:01.067Z,55
2016-12-22T12:48:01.071Z,50
2016-12-22T12:49:00.739Z,50
2016-12-22T12:50:01.062Z,50
2016-12-22T12:51:01.056Z,50
2016-12-22T12:52:01.056Z,50
2016-12-22T12:53:01.047Z,55
2016-12-22T12:54:01.044Z,55
2016-12-22T12:55:01.372Z,50
2016-12-22T12:56:00.716Z,50
2016-12-22T12:57:01.368Z,45
2016-12-22T12:58:01.039Z,45
2016-12-22T12:59:01.036Z,45
2016-12-22T13:00:01.352Z,45
2016-12-22T13:01:01.027Z,45
2016-12-22T13:02:01.011Z,45
2016-12-22T13:03:00.360Z,40
2016-12-22T13:04:01.344Z,40
2016-12-22T13:05:01.020Z,45
2016-12-22T13:06:00.683Z,45
2016-12-22T13:07:01.327Z,45
2016-12-22T13:08:01.008Z,45
2016-12-22T13:09:01.011Z,45
2016-12-22T13:10:01.328Z,40
2016-12-22T13:11:00.996Z,40
2016-12-22T13:12:01.324Z,40
2016-12-22T13:13:00.652Z,40
2016-12-22T13:14:00.655Z,40
2016-12-22T13:15:00.985Z,40
2016-12-22T13:16:00.980Z,35
2016-12-22T13:17:01.000Z,35
2016-12-22T13:18:00.316Z,35
2016-12-22T13:19:00.960Z,40
2016-12-22T13:20:01.292Z,35
2016-12-22T13:21:01.280Z,35
2016-12-22T13:22:00.952Z,35
2016-12-22T13:23:01.284Z,35
2016-12-22T13:24:00.300Z,35
2016-12-22T13:25:00.619Z,35
2016-12-22T13:26:01.272Z,30
2016-12-22T13:27:00.940Z,35
2016-12-22T13:28:00.600Z,35
2016-12-22T13:29:00.936Z,35
2016-12-22T13:30:00.596Z,35
2016-12-22T13:31:00.596Z,35
2016-12-22T13:32:00.924Z,35
2016-12-22T13:33:01.248Z,40
2016-12-22T13:34:00.589Z,40
2016-12-22T13:35:00.928Z,40
2016-12-22T13:36:00.904Z,40
2016-12-22T13:37:00.908Z,45
2016-12-22T13:38:00.888Z,45
2016-12-22T13:39:00.900Z,45
2016-12-22T13:40:00.568Z,45
2016-12-22T13:41:00.564Z,40
2016-12-22T13:42:00.884Z,40
2016-12-22T13:43:01.207Z,40
2016-12-22T13:44:00.878Z,40
2016-12-22T13:45:01.464Z,40
2016-12-22T13:46:00.880Z,40
2016-12-22T13:47:01.200Z,40
2016-12-22T13:48:01.192Z,40
2016-12-22T13:49:00.540Z,35
2016-12-22T13:50:01.188Z,35
2016-12-22T13:51:00.856Z,40
2016-12-22T13:52:00.856Z,40
2016-12-22T13:53:00.847Z,40
2016-12-22T13:54:01.176Z,40
2016-12-22T13:55:00.516Z,35
2016-12-22T13:56:00.995Z,35
2016-12-22T13:57:00.843Z,35
2016-12-22T13:58:00.176Z,30
2016-12-22T13:59:00.832Z,30
2016-12-22T14:00:01.164Z,30
2016-12-22T14:01:01.009Z,30
2016-12-22T14:02:00.820Z,30
2016-12-22T14:03:01.148Z,30
2016-12-22T14:04:00.520Z,30
2016-12-22T14:05:00.155Z,30
2016-12-22T14:06:00.159Z,30
2016-12-22T14:07:00.797Z,30
2016-12-22T14:08:01.128Z,30
2016-12-22T14:09:00.464Z,30
2016-12-22T14:10:00.175Z,30
2016-12-22T14:11:00.791Z,30
2016-12-22T14:12:01.135Z,30
2016-12-22T14:13:01.143Z,25
2016-12-22T14:14:01.110Z,25
2016-12-22T14:15:01.138Z,25
2016-12-22T14:16:00.766Z,30
2016-12-22T14:17:00.434Z,25
2016-12-22T14:18:01.126Z,25
2016-12-22T14:19:00.766Z,25
2016-12-22T14:20:00.762Z,25
2016-12-22T14:21:00.573Z,25
2016-12-22T14:22:00.425Z,20
2016-12-22T14:23:01.069Z,20
2016-12-22T14:24:01.068Z,20
2016-12-22T14:25:00.741Z,20
2016-12-22T14:26:01.217Z,20
2016-12-22T14:27:00.745Z,20
2016-12-22T14:28:00.741Z,20
2016-12-22T14:29:00.733Z,20
2016-12-22T14:30:01.057Z,20
2016-12-22T14:31:01.100Z,20
2016-12-22T14:32:00.717Z,20
2016-12-22T14:33:01.073Z,15
2016-12-22T14:34:01.041Z,15
2016-12-22T14:35:00.696Z,15
2016-12-22T14:36:00.707Z,15
2016-12-22T14:37:00.369Z,15